createdAt,value
2024-05-09T00:01:09.801Z,7.70
2024-05-09T00:06:11.463Z,6.40
2024-05-09T00:11:20.568Z,7.75
2024-05-09T00:16:22.430Z,7.75
2024-05-09T00:21:24.063Z,7.75
2024-05-09T00:26:25.775Z,8.15
2024-05-09T00:31:27.452Z,7.47
2024-05-09T00:36:29.081Z,8.90
2024-05-09T00:41:30.779Z,7.82
2024-05-09T00:46:32.451Z,7.20
2024-05-09T00:51:34.091Z,8.30
2024-05-09T00:56:35.819Z,7.80
2024-05-09T01:01:37.581Z,6.78
2024-05-09T01:06:39.263Z,7.85
2024-05-09T01:11:41.188Z,6.50
2024-05-09T01:16:42.904Z,6.78
2024-05-09T01:21:44.635Z,6.55
2024-05-09T01:26:46.289Z,7.28
2024-05-09T01:31:48.345Z,8.45
2024-05-09T01:36:50.025Z,7.03
2024-05-09T01:41:51.743Z,7.32
2024-05-09T01:46:53.436Z,7.45
2024-05-09T01:51:55.097Z,7.57
2024-05-09T01:56:56.724Z,7.60
2024-05-09T02:01:58.476Z,7.05
2024-05-09T02:07:00.224Z,7.88
2024-05-09T02:12:02.063Z,7.80
2024-05-09T02:17:04.210Z,7.20
2024-05-09T02:22:05.867Z,10.30
2024-05-09T02:32:09.961Z,7.93
2024-05-09T02:37:11.621Z,8.05
2024-05-09T02:42:13.245Z,7.45
2024-05-09T02:47:14.994Z,7.75
2024-05-09T02:52:19.883Z,8.35
2024-05-09T02:57:21.516Z,8.05
2024-05-09T03:02:23.216Z,7.68
2024-05-09T03:07:25.051Z,7.55
2024-05-09T03:12:28.209Z,6.88
2024-05-09T03:17:29.933Z,7.72
2024-05-09T03:22:31.630Z,6.82
2024-05-09T03:27:33.259Z,7.50
2024-05-09T03:32:35.085Z,7.72
2024-05-09T03:37:36.850Z,7.43
2024-05-09T03:42:41.615Z,7.07
2024-05-09T03:47:43.392Z,6.80
2024-05-09T03:52:45.225Z,7.38
2024-05-09T03:57:46.868Z,8.02
2024-05-09T04:02:48.565Z,7.32
2024-05-09T04:07:50.303Z,7.10
2024-05-09T04:12:53.212Z,8.50
2024-05-09T04:17:55.176Z,7.43
2024-05-09T04:22:57.081Z,7.78
2024-05-09T04:27:58.745Z,7.60
2024-05-09T04:33:00.500Z,9.13
2024-05-09T04:38:02.673Z,10.07
2024-05-09T04:43:07.618Z,9.27
2024-05-09T04:48:09.651Z,9.00
2024-05-09T04:53:15.261Z,8.30
2024-05-09T04:58:17.036Z,8.77
2024-05-09T05:03:18.906Z,8.60
2024-05-09T05:08:21.054Z,8.25
2024-05-09T05:13:23.925Z,9.85
2024-05-09T05:18:27.523Z,8.32
2024-05-09T05:23:29.654Z,8.75
2024-05-09T05:28:31.316Z,8.63
2024-05-09T05:33:33.185Z,8.50
2024-05-09T05:38:34.973Z,10.85
2024-05-09T05:43:36.643Z,10.55
2024-05-09T05:48:38.378Z,8.80
2024-05-09T05:53:40.192Z,9.00
2024-05-09T05:58:43.191Z,11.00
2024-05-09T06:03:44.974Z,10.07
2024-05-09T06:08:46.812Z,10.25
2024-05-09T06:13:48.763Z,9.40
2024-05-09T06:18:50.613Z,8.55
2024-05-09T06:23:53.444Z,10.10
2024-05-09T06:28:55.161Z,8.00
2024-05-09T06:33:56.964Z,7.90
2024-05-09T06:38:58.680Z,9.38
2024-05-09T06:44:00.389Z,8.32
2024-05-09T06:49:08.356Z,8.40
2024-05-09T06:54:10.188Z,8.80
2024-05-09T06:59:11.883Z,8.18
2024-05-09T07:04:13.685Z,8.45
2024-05-09T07:09:15.440Z,8.20
2024-05-09T07:14:17.124Z,9.43
2024-05-09T07:19:19.214Z,7.97
2024-05-09T07:24:20.952Z,9.45
2024-05-09T07:29:22.675Z,8.75
2024-05-09T07:34:25.324Z,9.65
2024-05-09T07:39:27.163Z,8.82
2024-05-09T07:44:30.516Z,7.95
2024-05-09T07:54:37.000Z,8.05
2024-05-09T07:59:38.965Z,8.55
2024-05-09T08:04:40.769Z,7.65
2024-05-09T08:09:42.501Z,7.03
2024-05-09T08:14:44.152Z,7.05
2024-05-09T08:19:45.874Z,6.68
2024-05-09T08:24:47.638Z,7.25
2024-05-09T08:29:49.316Z,7.60
2024-05-09T08:34:51.072Z,6.70
2024-05-09T08:39:52.871Z,5.70
2024-05-09T08:44:54.538Z,6.10
2024-05-09T08:49:58.436Z,5.32
2024-05-09T08:55:00.857Z,5.03
2024-05-09T09:05:11.161Z,4.90
2024-05-09T09:10:17.853Z,4.63
2024-05-09T09:15:26.755Z,6.18
2024-05-09T09:20:35.884Z,5.75
2024-05-09T09:25:41.846Z,6.20
2024-05-09T09:30:43.640Z,5.22
2024-05-09T09:35:45.393Z,4.25
2024-05-09T09:40:50.250Z,4.53
2024-05-09T09:45:53.472Z,3.65
2024-05-09T09:50:55.634Z,3.83
2024-05-09T09:55:57.729Z,3.72
2024-05-09T10:00:59.486Z,3.88
2024-05-09T10:06:01.271Z,4.40
2024-05-09T10:11:03.652Z,4.10
2024-05-09T10:16:11.406Z,3.70
2024-05-09T10:21:17.323Z,4.20
2024-05-09T10:26:18.969Z,4.85
2024-05-09T10:31:20.628Z,5.22
2024-05-09T10:36:25.440Z,3.65
2024-05-09T10:41:27.079Z,4.85
2024-05-09T10:46:28.738Z,4.95
2024-05-09T10:51:30.444Z,4.18
2024-05-09T10:56:32.145Z,4.70
2024-05-09T11:01:33.869Z,4.28
2024-05-09T11:06:38.105Z,3.85
2024-05-09T11:11:39.860Z,4.03
2024-05-09T11:16:41.532Z,4.30
2024-05-09T11:21:43.312Z,3.53
2024-05-09T11:26:44.978Z,3.67
2024-05-09T11:31:49.558Z,4.00
2024-05-09T11:36:51.266Z,4.60
2024-05-09T11:41:52.986Z,3.20
2024-05-09T11:46:54.961Z,2.58
2024-05-09T12:07:01.474Z,3.88
2024-05-09T12:12:03.702Z,3.47
2024-05-09T12:17:05.722Z,4.10
2024-05-09T12:22:07.621Z,3.47
2024-05-09T12:27:09.320Z,3.97
2024-05-09T12:32:11.016Z,4.38
2024-05-09T12:37:13.732Z,5.03
2024-05-09T12:42:26.368Z,5.65
2024-05-09T12:47:29.647Z,5.55
2024-05-09T12:52:31.346Z,6.40
2024-05-09T12:57:33.021Z,6.55
2024-05-09T13:02:34.836Z,5.00
2024-05-09T13:07:36.632Z,5.53
2024-05-09T13:12:38.502Z,5.00
2024-05-09T13:17:40.192Z,4.53
2024-05-09T13:22:42.554Z,4.75
2024-05-09T13:27:44.254Z,3.80
2024-05-09T13:32:46.036Z,4.40
2024-05-09T13:37:47.805Z,4.50
2024-05-09T13:42:49.462Z,4.90
2024-05-09T13:47:51.270Z,4.45
2024-05-09T13:52:53.020Z,4.03
2024-05-09T13:57:55.386Z,4.78
2024-05-09T14:02:57.412Z,4.03
2024-05-09T14:07:59.104Z,4.65
2024-05-09T14:13:01.285Z,4.28
2024-05-09T14:18:03.946Z,4.18
2024-05-09T14:23:05.579Z,4.07
2024-05-09T14:28:07.406Z,4.10
2024-05-09T14:33:09.727Z,3.75
2024-05-09T14:38:11.741Z,3.63
2024-05-09T14:43:14.495Z,4.28
2024-05-09T14:48:16.840Z,4.07
2024-05-09T14:53:18.626Z,5.05
2024-05-09T14:58:20.484Z,4.15
2024-05-09T15:03:22.806Z,4.32
2024-05-09T15:08:24.674Z,4.88
2024-05-09T15:13:26.546Z,4.90
2024-05-09T15:18:29.503Z,4.47
2024-05-09T15:23:31.340Z,4.43
2024-05-09T15:28:33.136Z,3.80
2024-05-09T15:33:34.925Z,4.18
2024-05-09T15:38:39.155Z,4.18
2024-05-09T15:43:40.886Z,4.05
2024-05-09T15:48:44.768Z,4.30
2024-05-09T15:53:46.693Z,4.03
2024-05-09T15:58:48.341Z,4.25
2024-05-09T16:03:50.310Z,4.43
2024-05-09T16:08:52.056Z,5.25
2024-05-09T16:13:53.696Z,5.07
2024-05-09T16:18:55.406Z,5.35
2024-05-09T16:23:58.376Z,4.22
2024-05-09T16:28:59.998Z,4.85
2024-05-09T16:34:01.726Z,7.32
2024-05-09T16:39:03.662Z,7.90
2024-05-09T16:44:05.382Z,7.32
2024-05-09T16:49:07.032Z,8.30
2024-05-09T16:54:08.656Z,5.95
2024-05-09T16:59:10.306Z,5.25
2024-05-09T17:04:12.213Z,5.65
2024-05-09T17:09:15.701Z,5.35
2024-05-09T17:14:19.861Z,6.50
2024-05-09T17:19:21.638Z,4.90
2024-05-09T17:24:23.319Z,5.97
2024-05-09T17:29:25.046Z,5.43
2024-05-09T17:34:27.080Z,5.88
2024-05-09T17:39:28.874Z,4.70
2024-05-09T17:44:30.502Z,6.10
2024-05-09T17:49:32.275Z,4.85
2024-05-09T17:54:34.047Z,5.10
2024-05-09T17:59:35.718Z,5.13
2024-05-09T18:04:37.481Z,3.60
2024-05-09T18:09:39.190Z,4.20
2024-05-09T18:14:41.006Z,4.15
2024-05-09T18:19:42.672Z,3.78
2024-05-09T18:24:44.347Z,4.97
2024-05-09T18:29:46.010Z,6.03
2024-05-09T18:34:47.717Z,4.07
2024-05-09T18:39:49.417Z,4.55
2024-05-09T18:44:51.086Z,3.90
2024-05-09T18:49:53.074Z,3.70
2024-05-09T18:54:55.064Z,3.63
2024-05-09T18:59:56.732Z,3.92
2024-05-09T19:04:58.716Z,3.67
2024-05-09T19:10:00.797Z,4.10
2024-05-09T19:15:02.564Z,4.57
2024-05-09T19:20:05.780Z,3.90
2024-05-09T19:25:07.769Z,4.13
2024-05-09T19:30:17.201Z,5.00
2024-05-09T19:35:23.386Z,3.80
2024-05-09T19:40:30.931Z,4.22
2024-05-09T19:45:35.744Z,3.90
2024-05-09T19:50:43.083Z,4.63
2024-05-09T19:55:46.256Z,5.00
2024-05-09T20:00:48.058Z,4.38
2024-05-09T20:05:49.879Z,4.60
2024-05-09T20:10:51.561Z,5.65
2024-05-09T20:15:53.202Z,4.97
2024-05-09T20:20:55.131Z,5.00
2024-05-09T20:25:56.836Z,5.22
2024-05-09T20:30:58.557Z,5.10
2024-05-09T20:36:02.156Z,5.53
2024-05-09T20:41:04.364Z,5.32
2024-05-09T20:46:06.211Z,4.80
2024-05-09T20:51:07.952Z,5.20
2024-05-09T20:56:09.590Z,4.57
2024-05-09T21:01:11.311Z,4.20
2024-05-09T21:06:13.080Z,5.55
2024-05-09T21:11:14.700Z,5.40
2024-05-09T21:16:16.432Z,5.32
2024-05-09T21:21:18.156Z,5.28
2024-05-09T21:26:22.985Z,6.22
2024-05-09T21:31:24.704Z,5.80
2024-05-09T21:36:26.389Z,5.70
2024-05-09T21:41:28.018Z,7.45
2024-05-09T21:46:29.810Z,8.20
2024-05-09T21:51:31.938Z,7.93
2024-05-09T21:56:33.657Z,8.25
2024-05-09T22:01:35.948Z,7.63
2024-05-09T22:06:37.785Z,8.52
2024-05-09T22:11:39.465Z,8.38
2024-05-09T22:16:41.305Z,7.70
2024-05-09T22:21:43.021Z,7.88
2024-05-09T22:26:44.696Z,8.30
2024-05-09T22:31:46.332Z,8.05
2024-05-09T22:36:47.975Z,7.50
2024-05-09T22:41:49.948Z,8.68
2024-05-09T22:46:51.693Z,6.43
2024-05-09T22:51:53.386Z,6.80
2024-05-09T22:56:55.039Z,6.07
2024-05-09T23:01:56.972Z,5.75
2024-05-09T23:06:58.677Z,5.30
2024-05-09T23:12:00.409Z,5.53
2024-05-09T23:17:02.118Z,5.65
2024-05-09T23:22:03.959Z,5.57
2024-05-09T23:27:05.595Z,5.07
2024-05-09T23:32:09.384Z,4.05
2024-05-09T23:37:11.059Z,3.90
2024-05-09T23:42:12.734Z,3.65
2024-05-09T23:47:14.469Z,3.33
2024-05-09T23:52:16.182Z,3.20
2024-05-09T23:57:17.834Z,3.10
